createdAt,value
2022-11-30T00:04:22.312Z,1.45
2022-11-30T00:06:57.554Z,1.42
2022-11-30T00:09:46.600Z,1.40
2022-11-30T00:12:33.634Z,1.43
2022-11-30T00:15:28.117Z,1.43
2022-11-30T00:18:15.877Z,1.43
2022-11-30T00:21:07.322Z,1.42
2022-11-30T00:23:50.591Z,1.41
2022-11-30T00:26:37.612Z,1.42
2022-11-30T00:29:21.755Z,1.39
2022-11-30T00:32:15.116Z,1.39
2022-11-30T00:34:59.387Z,1.51
2022-11-30T00:37:44.230Z,1.43
2022-11-30T00:40:37.882Z,1.42
2022-11-30T00:43:46.724Z,1.42
2022-11-30T00:46:40.011Z,1.46
2022-11-30T00:49:38.735Z,1.41
2022-11-30T00:52:25.943Z,1.44
2022-11-30T00:55:08.297Z,1.44
2022-11-30T00:57:48.291Z,1.46
2022-11-30T01:00:33.603Z,1.46
2022-11-30T01:03:09.392Z,1.48
2022-11-30T01:05:52.323Z,1.49
2022-11-30T01:08:57.313Z,1.50
2022-11-30T01:12:04.563Z,1.51
2022-11-30T01:18:11.506Z,1.52
2022-11-30T01:21:03.616Z,1.54
2022-11-30T01:23:58.068Z,1.55
2022-11-30T01:26:56.158Z,1.53
2022-11-30T01:29:45.063Z,1.55
2022-11-30T01:32:37.712Z,1.56
2022-11-30T01:35:35.208Z,1.58
2022-11-30T01:38:11.028Z,1.57
2022-11-30T01:40:51.975Z,1.55
2022-11-30T01:43:44.879Z,1.57
2022-11-30T01:46:35.927Z,1.59
2022-11-30T01:49:19.773Z,1.57
2022-11-30T01:52:00.857Z,1.52
2022-11-30T01:54:39.913Z,1.50
2022-11-30T01:57:20.111Z,1.48
2022-11-30T01:59:56.278Z,1.44
2022-11-30T02:02:39.001Z,1.44
2022-11-30T02:05:13.991Z,1.44
2022-11-30T02:07:49.710Z,1.43
2022-11-30T02:10:26.691Z,1.45
2022-11-30T02:13:38.706Z,1.51
2022-11-30T02:16:23.131Z,1.49
2022-11-30T02:19:12.561Z,1.47
2022-11-30T02:21:53.382Z,1.47
2022-11-30T02:24:54.101Z,1.51
2022-11-30T02:27:44.045Z,1.50
2022-11-30T02:30:26.003Z,1.49
2022-11-30T02:33:07.548Z,1.47
2022-11-30T02:35:49.112Z,1.50
2022-11-30T02:38:27.890Z,1.51
2022-11-30T02:41:04.408Z,1.51
2022-11-30T02:43:42.128Z,1.53
2022-11-30T02:46:24.020Z,1.54
2022-11-30T02:49:05.309Z,1.53
2022-11-30T02:51:41.480Z,1.53
2022-11-30T02:54:15.050Z,1.56
2022-11-30T02:56:51.198Z,1.57
2022-11-30T02:59:24.918Z,1.56
2022-11-30T03:02:02.287Z,1.57
2022-11-30T03:04:38.786Z,1.58
2022-11-30T03:07:12.291Z,1.59
2022-11-30T03:09:45.778Z,1.61
2022-11-30T03:12:20.948Z,1.63
2022-11-30T03:14:54.925Z,1.64
2022-11-30T03:17:29.559Z,1.75
2022-11-30T03:20:03.203Z,1.68
2022-11-30T03:22:36.723Z,1.68
2022-11-30T03:25:10.785Z,1.69
2022-11-30T03:27:44.284Z,1.72
2022-11-30T03:30:20.740Z,1.71
2022-11-30T03:32:55.700Z,1.72
2022-11-30T03:35:29.188Z,1.72
2022-11-30T03:38:02.675Z,1.70
2022-11-30T03:40:37.969Z,1.70
2022-11-30T03:43:11.432Z,1.69
2022-11-30T03:45:46.743Z,1.68
2022-11-30T03:48:21.831Z,1.69
2022-11-30T03:50:55.482Z,1.68
2022-11-30T03:53:29.365Z,1.66
2022-11-30T03:56:05.173Z,1.65
2022-11-30T03:58:39.236Z,1.63
2022-11-30T04:01:14.848Z,1.62
2022-11-30T04:03:50.244Z,1.61
2022-11-30T04:06:23.860Z,1.65
2022-11-30T04:09:00.112Z,1.66
2022-11-30T04:11:33.666Z,1.66
2022-11-30T04:14:07.244Z,1.66
2022-11-30T04:16:40.862Z,1.65
2022-11-30T04:19:15.688Z,1.63
2022-11-30T04:21:49.486Z,1.63
2022-11-30T04:24:23.015Z,1.65
2022-11-30T04:26:56.458Z,1.65
2022-11-30T04:29:30.008Z,1.62
2022-11-30T04:32:03.459Z,1.62
2022-11-30T04:34:38.415Z,1.60
2022-11-30T04:37:12.118Z,1.59
2022-11-30T04:39:45.551Z,1.58
2022-11-30T04:42:19.207Z,1.57
2022-11-30T04:44:52.684Z,1.57
2022-11-30T04:47:26.253Z,1.61
2022-11-30T04:50:01.146Z,1.59
2022-11-30T04:52:34.965Z,1.57
2022-11-30T04:55:09.164Z,1.56
2022-11-30T04:57:42.660Z,1.55
2022-11-30T05:00:18.182Z,1.52
2022-11-30T05:02:53.171Z,1.51
2022-11-30T05:05:28.313Z,1.48
2022-11-30T05:08:01.867Z,1.48
2022-11-30T05:10:35.447Z,1.45
2022-11-30T05:13:08.998Z,1.45
2022-11-30T05:15:42.463Z,1.43
2022-11-30T05:18:16.942Z,1.42
2022-11-30T05:20:52.993Z,1.38
2022-11-30T05:23:26.517Z,1.36
2022-11-30T05:26:02.462Z,1.36
2022-11-30T05:28:35.979Z,1.36
2022-11-30T05:31:09.490Z,1.37
2022-11-30T05:33:43.091Z,1.37
2022-11-30T05:36:17.996Z,1.38
2022-11-30T05:38:51.490Z,1.40
2022-11-30T05:41:25.165Z,1.41
2022-11-30T05:43:58.581Z,1.43
2022-11-30T05:46:32.117Z,1.47
2022-11-30T05:49:05.946Z,1.51
2022-11-30T05:51:41.708Z,1.54
2022-11-30T05:54:15.155Z,1.57
2022-11-30T05:56:53.124Z,1.59
2022-11-30T05:59:28.256Z,1.58
2022-11-30T06:02:01.960Z,1.56
2022-11-30T06:04:36.090Z,1.52
2022-11-30T06:07:12.189Z,1.49
2022-11-30T06:09:45.686Z,1.48
2022-11-30T06:12:19.166Z,1.47
2022-11-30T06:14:52.715Z,1.43
2022-11-30T06:17:26.190Z,1.41
2022-11-30T06:19:59.718Z,1.40
2022-11-30T06:22:34.659Z,1.38
2022-11-30T06:25:08.822Z,1.38
2022-11-30T06:27:43.794Z,1.41
2022-11-30T06:30:17.504Z,1.41
2022-11-30T06:32:54.753Z,1.43
2022-11-30T06:35:28.189Z,1.43
2022-11-30T06:38:03.168Z,1.44
2022-11-30T06:40:36.807Z,1.46
2022-11-30T06:43:10.459Z,1.47
2022-11-30T06:45:45.188Z,1.46
2022-11-30T06:48:18.740Z,1.45
2022-11-30T06:50:52.258Z,1.45
2022-11-30T06:53:27.521Z,1.48
2022-11-30T06:56:05.200Z,1.48
2022-11-30T06:58:42.605Z,1.49
2022-11-30T07:01:16.714Z,1.49
2022-11-30T07:03:50.710Z,1.48
2022-11-30T07:06:24.353Z,1.49
2022-11-30T07:08:59.319Z,1.52
2022-11-30T07:11:33.512Z,1.54
2022-11-30T07:14:07.109Z,1.53
2022-11-30T07:16:40.972Z,1.53
2022-11-30T07:19:42.819Z,1.68
2022-11-30T07:22:42.265Z,1.66
2022-11-30T07:25:38.157Z,1.65
2022-11-30T07:28:11.636Z,1.63
2022-11-30T07:30:45.072Z,1.66
2022-11-30T07:33:18.494Z,1.66
2022-11-30T07:35:53.908Z,1.66
2022-11-30T07:38:27.418Z,1.68
2022-11-30T07:41:02.299Z,1.70
2022-11-30T07:43:36.044Z,1.74
2022-11-30T07:46:11.127Z,1.77
2022-11-30T07:48:46.141Z,1.82
2022-11-30T07:51:20.885Z,1.87
2022-11-30T07:53:56.769Z,1.92
2022-11-30T07:56:33.559Z,1.99
2022-11-30T07:59:06.976Z,2.06
2022-11-30T08:01:40.479Z,2.07
2022-11-30T08:04:14.667Z,2.04
2022-11-30T08:06:48.102Z,2.04
2022-11-30T08:09:21.556Z,2.06
2022-11-30T08:11:56.437Z,2.09
2022-11-30T08:14:29.853Z,2.11
2022-11-30T08:17:05.755Z,2.16
2022-11-30T08:19:44.282Z,2.20
2022-11-30T08:22:19.462Z,2.22
2022-11-30T08:24:52.861Z,2.22
2022-11-30T08:27:33.705Z,2.24
2022-11-30T08:30:11.203Z,2.23
2022-11-30T08:32:44.785Z,2.25
2022-11-30T08:35:18.195Z,2.28
2022-11-30T08:38:08.725Z,2.31
2022-11-30T08:40:42.183Z,2.30
2022-11-30T08:43:17.007Z,2.33
2022-11-30T08:45:54.397Z,2.41
2022-11-30T08:48:30.531Z,2.46
2022-11-30T08:51:04.518Z,2.47
2022-11-30T08:53:38.042Z,2.61
2022-11-30T08:56:18.404Z,2.51
2022-11-30T08:59:02.000Z,2.51
2022-11-30T09:01:38.245Z,2.50
2022-11-30T09:04:11.691Z,2.51
2022-11-30T09:06:45.103Z,2.56
2022-11-30T09:09:21.168Z,2.61
2022-11-30T09:11:54.594Z,2.65
2022-11-30T09:14:29.568Z,2.70
2022-11-30T09:17:05.404Z,2.74
2022-11-30T09:19:39.018Z,2.78
2022-11-30T09:22:12.585Z,2.82
2022-11-30T09:24:46.336Z,2.87
2022-11-30T09:27:22.102Z,2.98
2022-11-30T09:29:59.355Z,2.88
2022-11-30T09:32:34.927Z,2.89
2022-11-30T09:35:12.815Z,2.90
2022-11-30T09:37:46.670Z,2.91
2022-11-30T09:40:37.944Z,2.99
2022-11-30T09:43:26.248Z,2.98
2022-11-30T09:46:06.380Z,2.94
2022-11-30T09:49:03.430Z,2.95
2022-11-30T09:51:44.796Z,2.90
2022-11-30T09:54:22.664Z,2.89
2022-11-30T09:56:56.310Z,2.88
2022-11-30T09:59:35.056Z,2.91
2022-11-30T10:02:19.221Z,2.93
2022-11-30T10:04:52.861Z,3.00
2022-11-30T10:07:56.597Z,2.88
2022-11-30T10:10:38.874Z,2.85
2022-11-30T10:13:30.644Z,2.87
2022-11-30T10:16:15.745Z,2.87
2022-11-30T10:19:00.531Z,2.87
2022-11-30T10:21:49.088Z,2.87
2022-11-30T10:24:41.357Z,2.89
2022-11-30T10:27:19.531Z,2.86
2022-11-30T10:29:53.257Z,2.84
2022-11-30T10:32:31.328Z,2.84
2022-11-30T10:35:23.176Z,2.90
2022-11-30T10:37:59.358Z,2.89
2022-11-30T10:40:39.671Z,2.89
2022-11-30T10:43:20.010Z,2.89
2022-11-30T10:45:54.100Z,2.88
2022-11-30T10:48:30.189Z,3.01
2022-11-30T10:51:05.884Z,2.95
2022-11-30T10:53:39.739Z,2.94
2022-11-30T10:56:15.306Z,2.93
2022-11-30T10:58:56.417Z,2.98
2022-11-30T11:01:35.307Z,3.02
2022-11-30T11:04:16.816Z,3.04
2022-11-30T11:06:55.748Z,3.18
2022-11-30T11:09:37.881Z,3.08
2022-11-30T11:12:18.922Z,3.04
2022-11-30T11:15:10.066Z,3.13
2022-11-30T11:17:43.658Z,3.09
2022-11-30T11:20:35.620Z,3.12
2022-11-30T11:23:23.246Z,3.13
2022-11-30T11:25:58.660Z,3.08
2022-11-30T11:28:33.383Z,3.08
2022-11-30T11:31:19.725Z,3.10
2022-11-30T11:33:55.594Z,3.08
2022-11-30T11:36:33.715Z,3.09
2022-11-30T11:39:27.148Z,3.14
2022-11-30T11:42:01.775Z,3.10
2022-11-30T11:44:35.679Z,3.11
2022-11-30T11:47:22.798Z,3.10
2022-11-30T11:50:08.307Z,3.11
2022-11-30T11:52:43.658Z,3.08
2022-11-30T11:55:21.296Z,3.06
2022-11-30T11:58:00.799Z,3.03
2022-11-30T12:00:37.571Z,3.03
2022-11-30T12:03:20.237Z,3.02
2022-11-30T12:06:04.849Z,3.02
2022-11-30T12:08:46.563Z,3.01
2022-11-30T12:11:26.133Z,2.98
2022-11-30T12:13:59.739Z,2.94
2022-11-30T12:16:42.133Z,2.95
2022-11-30T12:19:21.678Z,2.92
2022-11-30T12:22:04.726Z,2.92
2022-11-30T12:25:04.251Z,2.95
2022-11-30T12:27:53.620Z,2.96
2022-11-30T12:30:38.750Z,2.96
2022-11-30T12:33:17.055Z,2.95
2022-11-30T12:36:04.134Z,2.96
2022-11-30T12:38:44.710Z,2.92
2022-11-30T12:41:39.946Z,2.92
2022-11-30T12:44:38.527Z,2.90
2022-11-30T12:47:30.467Z,2.87
2022-11-30T12:50:35.352Z,2.89
2022-11-30T12:53:14.291Z,2.91
2022-11-30T12:56:01.535Z,2.79
2022-11-30T12:58:46.394Z,2.78
2022-11-30T13:01:41.637Z,2.77
2022-11-30T13:04:20.686Z,2.75
2022-11-30T13:06:59.772Z,2.70
2022-11-30T13:09:46.675Z,2.67
2022-11-30T13:12:36.377Z,2.67
2022-11-30T13:15:17.645Z,2.66
2022-11-30T13:18:03.079Z,2.67
2022-11-30T13:20:44.343Z,2.68
2022-11-30T13:23:31.679Z,2.68
2022-11-30T13:26:22.262Z,2.69
2022-11-30T13:29:19.626Z,2.68
2022-11-30T13:32:05.583Z,2.68
2022-11-30T13:34:40.414Z,2.67
2022-11-30T13:37:23.049Z,2.68
2022-11-30T13:40:01.045Z,2.66
2022-11-30T13:42:37.889Z,2.63
2022-11-30T13:45:27.110Z,2.63
2022-11-30T13:48:02.227Z,2.63
2022-11-30T13:50:39.977Z,2.64
2022-11-30T13:53:34.458Z,2.70
2022-11-30T13:56:23.767Z,2.68
2022-11-30T13:59:41.019Z,2.75
2022-11-30T14:02:58.310Z,2.73
2022-11-30T14:05:44.424Z,2.70
2022-11-30T14:08:34.730Z,2.67
2022-11-30T14:11:39.615Z,2.66
2022-11-30T14:14:48.955Z,2.64
2022-11-30T14:17:29.055Z,2.59
2022-11-30T14:20:16.092Z,2.59
2022-11-30T14:22:52.532Z,2.57
2022-11-30T14:25:33.686Z,2.53
2022-11-30T14:28:11.860Z,2.51
2022-11-30T14:30:45.722Z,2.52
2022-11-30T14:33:26.647Z,2.49
2022-11-30T14:36:02.035Z,2.44
2022-11-30T14:38:43.511Z,2.43
2022-11-30T14:41:26.135Z,2.46
2022-11-30T14:44:05.584Z,2.46
2022-11-30T14:46:39.349Z,2.47
2022-11-30T14:49:17.683Z,2.46
2022-11-30T14:51:54.000Z,2.44
2022-11-30T14:54:52.243Z,2.45
2022-11-30T14:57:33.549Z,2.42
2022-11-30T15:00:08.607Z,2.42
2022-11-30T15:02:45.845Z,2.41
2022-11-30T15:05:24.136Z,2.41
2022-11-30T15:07:58.381Z,2.43
2022-11-30T15:10:36.185Z,2.45
2022-11-30T15:13:17.259Z,2.46
2022-11-30T15:15:55.394Z,2.48
2022-11-30T15:18:28.859Z,2.48
2022-11-30T15:21:09.181Z,2.48
2022-11-30T15:23:45.579Z,2.48
2022-11-30T15:26:35.712Z,2.50
2022-11-30T15:29:17.543Z,2.53
2022-11-30T15:31:53.228Z,2.54
2022-11-30T15:34:40.256Z,2.55
2022-11-30T15:37:16.765Z,2.54
2022-11-30T15:39:53.054Z,2.55
2022-11-30T15:42:39.905Z,2.58
2022-11-30T15:45:17.693Z,2.56
2022-11-30T15:47:51.546Z,2.54
2022-11-30T15:50:38.440Z,2.56
2022-11-30T15:53:33.737Z,2.54
2022-11-30T15:56:10.432Z,2.50
2022-11-30T15:59:03.096Z,2.52
2022-11-30T16:02:02.451Z,2.49
2022-11-30T16:05:14.850Z,2.50
2022-11-30T16:07:52.007Z,2.47
2022-11-30T16:10:27.714Z,2.44
2022-11-30T16:13:01.137Z,2.45
2022-11-30T16:15:37.875Z,2.47
2022-11-30T16:18:17.624Z,2.47
2022-11-30T16:20:53.683Z,2.46
2022-11-30T16:23:28.291Z,2.44
2022-11-30T16:26:01.823Z,2.43
2022-11-30T16:28:35.391Z,2.43
2022-11-30T16:31:19.033Z,2.45
2022-11-30T16:33:52.643Z,2.46
2022-11-30T16:36:26.159Z,2.48
2022-11-30T16:38:59.515Z,2.48
2022-11-30T16:41:33.111Z,2.51
2022-11-30T16:44:16.492Z,2.50
2022-11-30T16:46:54.115Z,2.49
2022-11-30T16:49:35.075Z,2.49
2022-11-30T16:52:11.234Z,2.48
2022-11-30T16:54:53.511Z,2.45
2022-11-30T16:57:27.050Z,2.40
2022-11-30T17:00:00.602Z,2.37
2022-11-30T17:02:37.473Z,2.35
2022-11-30T17:05:18.969Z,2.33
2022-11-30T17:07:52.635Z,2.34
2022-11-30T17:10:26.280Z,2.36
2022-11-30T17:13:01.852Z,2.34
2022-11-30T17:15:35.575Z,2.31
2022-11-30T17:18:10.735Z,2.29
2022-11-30T17:20:44.496Z,2.29
2022-11-30T17:23:18.009Z,2.28
2022-11-30T17:25:52.081Z,2.28
2022-11-30T17:28:25.675Z,2.29
2022-11-30T17:30:59.581Z,2.30
2022-11-30T17:33:36.811Z,2.32
2022-11-30T17:36:13.970Z,2.35
2022-11-30T17:38:47.652Z,2.40
2022-11-30T17:41:25.855Z,2.45
2022-11-30T17:44:03.097Z,2.47
2022-11-30T17:46:45.318Z,2.47
2022-11-30T17:49:22.939Z,2.49
2022-11-30T17:51:57.642Z,2.49
2022-11-30T17:54:33.632Z,2.48
2022-11-30T17:57:07.248Z,2.48
2022-11-30T17:59:43.131Z,2.50
2022-11-30T18:02:16.759Z,2.50
2022-11-30T18:04:52.819Z,2.51
2022-11-30T18:07:29.108Z,2.52
2022-11-30T18:10:02.826Z,2.52
2022-11-30T18:12:36.464Z,2.57
2022-11-30T18:15:10.807Z,2.59
2022-11-30T18:17:44.360Z,2.59
2022-11-30T18:20:20.109Z,2.63
2022-11-30T18:22:53.600Z,2.65
2022-11-30T18:25:27.123Z,2.66
2022-11-30T18:28:00.764Z,2.66
2022-11-30T18:30:34.570Z,2.65
2022-11-30T18:33:08.690Z,2.63
2022-11-30T18:35:43.491Z,2.63
2022-11-30T18:38:17.008Z,2.61
2022-11-30T18:40:50.404Z,2.60
2022-11-30T18:43:24.971Z,2.60
2022-11-30T18:46:04.251Z,2.61
2022-11-30T18:48:50.060Z,2.62
2022-11-30T18:51:26.901Z,2.63
2022-11-30T18:54:05.374Z,2.63
2022-11-30T18:56:42.745Z,2.64
2022-11-30T18:59:19.592Z,2.65
2022-11-30T19:01:53.671Z,2.66
2022-11-30T19:04:29.298Z,2.65
2022-11-30T19:07:04.414Z,2.65
2022-11-30T19:09:38.177Z,2.66
2022-11-30T19:12:14.756Z,2.66
2022-11-30T19:14:50.601Z,2.70
2022-11-30T19:17:30.299Z,2.70
2022-11-30T19:20:04.190Z,2.72
2022-11-30T19:22:39.199Z,2.86
2022-11-30T19:25:17.746Z,2.76
2022-11-30T19:27:52.891Z,2.76
2022-11-30T19:30:27.940Z,2.78
2022-11-30T19:33:01.814Z,2.79
2022-11-30T19:35:35.412Z,2.80
2022-11-30T19:38:10.458Z,2.82
2022-11-30T19:40:43.970Z,2.83
2022-11-30T19:43:17.630Z,2.85
2022-11-30T19:45:51.519Z,2.87
2022-11-30T19:48:27.721Z,2.89
2022-11-30T19:51:01.644Z,2.90
2022-11-30T19:53:39.853Z,2.93
2022-11-30T19:56:15.666Z,2.93
2022-11-30T19:58:52.221Z,2.94
2022-11-30T20:01:28.005Z,2.96
2022-11-30T20:04:01.672Z,2.94
2022-11-30T20:06:43.334Z,2.94
2022-11-30T20:09:18.563Z,2.97
2022-11-30T20:11:52.333Z,2.98
2022-11-30T20:14:28.390Z,3.01
2022-11-30T20:17:02.131Z,3.00
2022-11-30T20:19:35.846Z,3.03
2022-11-30T20:22:09.756Z,3.05
2022-11-30T20:24:47.606Z,3.07
2022-11-30T20:27:24.140Z,3.05
2022-11-30T20:29:58.011Z,3.04
2022-11-30T20:32:31.848Z,3.02
2022-11-30T20:35:07.865Z,3.02
2022-11-30T20:37:44.980Z,3.02
2022-11-30T20:40:20.424Z,3.04
2022-11-30T20:42:58.168Z,3.06
2022-11-30T20:45:32.745Z,3.06
2022-11-30T20:48:06.674Z,3.08
2022-11-30T20:50:40.051Z,3.20
2022-11-30T20:53:16.426Z,3.12
2022-11-30T20:55:56.609Z,3.14
2022-11-30T20:58:35.551Z,3.12
2022-11-30T21:01:14.258Z,3.13
2022-11-30T21:03:48.544Z,3.13
2022-11-30T21:06:31.383Z,3.13
2022-11-30T21:09:05.739Z,3.13
2022-11-30T21:11:41.448Z,3.13
2022-11-30T21:14:15.749Z,3.15
2022-11-30T21:16:51.967Z,3.16
2022-11-30T21:19:29.614Z,3.14
2022-11-30T21:22:04.721Z,3.15
2022-11-30T21:24:38.837Z,3.15
2022-11-30T21:27:13.691Z,3.26
2022-11-30T21:29:47.279Z,3.17
2022-11-30T21:32:21.078Z,3.17
2022-11-30T21:34:54.632Z,3.26
2022-11-30T21:37:31.216Z,3.16
2022-11-30T21:40:05.452Z,3.13
2022-11-30T21:42:40.328Z,3.13
2022-11-30T21:45:13.916Z,3.13
2022-11-30T21:47:47.540Z,3.13
2022-11-30T21:50:26.901Z,3.14
2022-11-30T21:53:00.894Z,3.13
2022-11-30T21:55:36.720Z,3.13
2022-11-30T21:58:11.754Z,3.12
2022-11-30T22:00:45.313Z,3.14
2022-11-30T22:03:19.747Z,3.16
2022-11-30T22:06:04.414Z,3.19
2022-11-30T22:08:38.651Z,3.18
2022-11-30T22:11:14.118Z,3.19
2022-11-30T22:13:51.562Z,3.21
2022-11-30T22:16:32.402Z,3.23
2022-11-30T22:19:09.275Z,3.23
2022-11-30T22:21:48.250Z,3.35
2022-11-30T22:24:23.603Z,3.25
2022-11-30T22:26:57.154Z,3.26
2022-11-30T22:29:32.260Z,3.25
2022-11-30T22:32:06.267Z,3.24
2022-11-30T22:34:40.123Z,3.26
2022-11-30T22:37:13.961Z,3.24
2022-11-30T22:39:50.654Z,3.24
2022-11-30T22:42:24.252Z,3.22
2022-11-30T22:44:59.064Z,3.22
2022-11-30T22:47:35.027Z,3.21
2022-11-30T22:50:09.254Z,3.22
2022-11-30T22:53:02.375Z,3.23
2022-11-30T22:55:36.233Z,3.23
2022-11-30T22:58:09.831Z,3.22
2022-11-30T23:00:44.787Z,3.20
2022-11-30T23:03:21.233Z,3.20
2022-11-30T23:05:55.211Z,3.20
2022-11-30T23:08:29.589Z,3.20
2022-11-30T23:11:04.988Z,3.18
2022-11-30T23:13:39.404Z,3.18
2022-11-30T23:16:15.626Z,3.17
2022-11-30T23:18:51.777Z,3.17
2022-11-30T23:21:29.962Z,3.17
2022-11-30T23:24:06.182Z,3.16
2022-11-30T23:26:40.206Z,3.19
2022-11-30T23:29:14.720Z,3.31
2022-11-30T23:31:49.612Z,3.32
2022-11-30T23:34:23.678Z,3.20
2022-11-30T23:36:57.270Z,3.17
2022-11-30T23:39:30.921Z,3.16
2022-11-30T23:42:04.481Z,3.16
2022-11-30T23:44:37.966Z,3.17
2022-11-30T23:47:17.993Z,3.17
2022-11-30T23:49:51.926Z,3.17
2022-11-30T23:52:25.415Z,3.18
2022-11-30T23:54:58.908Z,3.17
2022-11-30T23:57:32.455Z,3.18
